createdAt,value
2022-10-21T00:01:41.243Z,15.80
2022-10-21T00:04:07.923Z,15.90
2022-10-21T00:06:34.524Z,15.80
2022-10-21T00:09:01.181Z,15.80
2022-10-21T00:11:27.936Z,15.90
2022-10-21T00:13:54.508Z,15.80
2022-10-21T00:16:21.130Z,15.80
2022-10-21T00:18:48.771Z,15.80
2022-10-21T00:21:18.819Z,15.80
2022-10-21T00:23:46.588Z,15.80
2022-10-21T00:26:14.773Z,15.80
2022-10-21T00:28:41.836Z,15.80
2022-10-21T00:31:10.408Z,15.80
2022-10-21T00:33:37.123Z,15.80
2022-10-21T00:36:07.152Z,15.80
2022-10-21T00:38:35.212Z,15.80
2022-10-21T00:41:02.167Z,15.80
2022-10-21T00:43:29.319Z,15.80
2022-10-21T00:46:01.559Z,15.80
2022-10-21T00:48:36.037Z,15.80
2022-10-21T00:51:12.625Z,15.90
2022-10-21T00:53:44.331Z,15.90
2022-10-21T00:56:16.483Z,15.90
2022-10-21T00:58:45.872Z,15.90
2022-10-21T01:01:13.678Z,15.90
2022-10-21T01:03:42.959Z,15.90
2022-10-21T01:06:12.441Z,15.90
2022-10-21T01:08:39.831Z,15.90
2022-10-21T01:11:12.828Z,15.80
2022-10-21T01:14:13.762Z,15.80
2022-10-21T01:17:45.805Z,15.80
2022-10-21T01:20:37.693Z,15.90
2022-10-21T01:23:42.157Z,15.90
2022-10-21T01:26:16.976Z,15.90
2022-10-21T01:28:55.260Z,15.90
2022-10-21T01:31:43.458Z,15.90
2022-10-21T01:34:12.016Z,15.90
2022-10-21T01:36:54.727Z,15.90
2022-10-21T01:39:54.080Z,15.90
2022-10-21T01:42:30.401Z,15.90
2022-10-21T01:45:07.675Z,15.90
2022-10-21T01:47:42.137Z,15.80
2022-10-21T01:50:10.412Z,15.80
2022-10-21T01:52:39.499Z,15.80
2022-10-21T01:55:12.661Z,15.80
2022-10-21T01:57:47.743Z,15.80
2022-10-21T02:00:14.480Z,15.80
2022-10-21T02:02:46.002Z,15.70
2022-10-21T02:05:18.583Z,15.70
2022-10-21T02:07:45.267Z,15.80
2022-10-21T02:10:11.996Z,15.80
2022-10-21T02:12:40.564Z,15.80
2022-10-21T02:15:12.399Z,15.90
2022-10-21T02:17:42.657Z,15.80
2022-10-21T02:20:12.131Z,15.80
2022-10-21T02:22:41.178Z,15.80
2022-10-21T02:25:14.339Z,15.80
2022-10-21T02:27:41.112Z,15.80
2022-10-21T02:30:08.536Z,15.80
2022-10-21T02:33:06.552Z,15.80
2022-10-21T02:35:43.146Z,15.80
2022-10-21T02:38:27.378Z,15.80
2022-10-21T02:40:59.579Z,15.80
2022-10-21T02:43:36.478Z,15.80
2022-10-21T02:46:14.187Z,15.80
2022-10-21T02:48:44.787Z,15.70
2022-10-21T02:51:11.884Z,15.70
2022-10-21T02:53:38.563Z,15.60
2022-10-21T02:56:05.513Z,15.60
2022-10-21T02:58:32.534Z,15.60
2022-10-21T03:00:59.478Z,15.60
2022-10-21T03:03:26.399Z,15.70
2022-10-21T03:05:53.022Z,15.70
2022-10-21T03:08:19.722Z,15.70
2022-10-21T03:10:52.220Z,15.70
2022-10-21T03:13:20.713Z,15.70
2022-10-21T03:15:48.719Z,15.70
2022-10-21T03:18:16.147Z,15.70
2022-10-21T03:20:43.229Z,15.70
2022-10-21T03:23:09.845Z,15.80
2022-10-21T03:25:36.456Z,15.80
2022-10-21T03:28:03.123Z,15.80
2022-10-21T03:30:29.781Z,15.80
2022-10-21T03:32:56.369Z,15.80
2022-10-21T03:35:23.032Z,15.80
2022-10-21T03:37:49.761Z,15.70
2022-10-21T03:40:16.489Z,15.70
2022-10-21T03:42:43.173Z,15.80
2022-10-21T03:45:10.346Z,15.90
2022-10-21T03:47:36.980Z,15.80
2022-10-21T03:50:06.389Z,15.90
2022-10-21T03:52:35.754Z,15.90
2022-10-21T03:55:02.490Z,15.80
2022-10-21T03:57:29.119Z,15.80
2022-10-21T03:59:55.736Z,15.80
2022-10-21T04:02:22.405Z,15.70
2022-10-21T04:04:49.012Z,15.70
2022-10-21T04:07:15.609Z,15.70
2022-10-21T04:09:42.260Z,15.70
2022-10-21T04:12:09.027Z,15.70
2022-10-21T04:14:35.713Z,15.70
2022-10-21T04:17:07.124Z,15.70
2022-10-21T04:19:34.512Z,15.70
2022-10-21T04:22:01.109Z,15.70
2022-10-21T04:24:27.759Z,15.70
2022-10-21T04:26:54.330Z,15.70
2022-10-21T04:29:21.095Z,15.70
2022-10-21T04:31:47.778Z,15.70
2022-10-21T04:34:14.577Z,15.70
2022-10-21T04:36:41.183Z,15.60
2022-10-21T04:39:07.780Z,15.60
2022-10-21T04:41:34.415Z,15.60
2022-10-21T04:44:02.469Z,15.70
2022-10-21T04:46:29.072Z,15.60
2022-10-21T04:48:55.740Z,15.70
2022-10-21T04:51:22.395Z,15.60
2022-10-21T04:53:49.053Z,15.60
2022-10-21T04:56:15.655Z,15.60
2022-10-21T04:58:42.275Z,15.60
2022-10-21T05:01:09.111Z,15.70
2022-10-21T05:03:35.775Z,15.70
2022-10-21T05:06:02.361Z,15.70
2022-10-21T05:08:29.064Z,15.70
2022-10-21T05:11:00.844Z,15.70
2022-10-21T05:13:28.719Z,15.80
2022-10-21T05:16:03.137Z,15.70
2022-10-21T05:18:30.823Z,15.70
2022-10-21T05:20:57.754Z,15.70
2022-10-21T05:23:25.940Z,15.70
2022-10-21T05:25:53.376Z,15.70
2022-10-21T05:28:20.689Z,15.70
2022-10-21T05:30:47.496Z,15.70
2022-10-21T05:33:14.808Z,15.70
2022-10-21T05:35:41.854Z,15.70
2022-10-21T05:38:08.505Z,15.70
2022-10-21T05:40:35.174Z,15.70
2022-10-21T05:43:01.836Z,15.70
2022-10-21T05:45:28.611Z,15.70
2022-10-21T05:47:55.294Z,15.80
2022-10-21T05:50:21.956Z,15.70
2022-10-21T05:52:48.701Z,15.70
2022-10-21T05:55:15.387Z,15.80
2022-10-21T05:57:42.265Z,15.70
2022-10-21T06:00:09.679Z,15.70
2022-10-21T06:02:36.752Z,15.70
2022-10-21T06:05:03.837Z,15.70
2022-10-21T06:07:30.443Z,15.70
2022-10-21T06:09:57.080Z,15.70
2022-10-21T06:12:23.700Z,15.70
2022-10-21T06:14:50.552Z,15.70
2022-10-21T06:17:17.255Z,15.60
2022-10-21T06:19:46.048Z,15.60
2022-10-21T06:22:15.493Z,15.70
2022-10-21T06:24:42.235Z,15.70
2022-10-21T06:27:09.084Z,15.70
2022-10-21T06:29:35.710Z,15.70
2022-10-21T06:32:02.381Z,15.70
2022-10-21T06:34:29.002Z,15.70
2022-10-21T06:36:55.629Z,15.60
2022-10-21T06:39:22.220Z,15.70
2022-10-21T06:41:48.805Z,15.70
2022-10-21T06:44:35.265Z,15.70
2022-10-21T06:47:01.910Z,15.60
2022-10-21T06:49:28.743Z,15.70
2022-10-21T06:51:55.329Z,15.70
2022-10-21T06:54:21.943Z,15.70
2022-10-21T06:56:48.499Z,15.70
2022-10-21T06:59:15.129Z,15.50
2022-10-21T07:01:59.126Z,15.60
2022-10-21T07:04:27.117Z,15.70
2022-10-21T07:06:53.718Z,15.70
2022-10-21T07:09:20.612Z,15.70
2022-10-21T07:11:47.326Z,15.80
2022-10-21T07:14:14.235Z,15.80
2022-10-21T07:16:40.857Z,15.80
2022-10-21T07:19:08.462Z,15.90
2022-10-21T07:21:35.158Z,15.90
2022-10-21T07:24:02.097Z,15.80
2022-10-21T07:26:31.967Z,15.70
2022-10-21T07:29:00.474Z,15.70
2022-10-21T07:31:28.913Z,15.70
2022-10-21T07:33:55.872Z,15.80
2022-10-21T07:36:26.421Z,15.80
2022-10-21T07:38:54.165Z,15.80
2022-10-21T07:41:35.593Z,15.80
2022-10-21T07:44:02.304Z,15.70
2022-10-21T07:46:29.049Z,15.70
2022-10-21T07:48:56.090Z,15.60
2022-10-21T07:51:28.503Z,15.70
2022-10-21T07:53:58.647Z,15.70
2022-10-21T07:56:31.427Z,15.70
2022-10-21T07:58:58.507Z,15.80
2022-10-21T08:01:25.717Z,15.80
2022-10-21T08:03:54.354Z,15.70
2022-10-21T08:06:22.314Z,15.70
2022-10-21T08:08:49.137Z,15.70
2022-10-21T08:11:45.385Z,15.70
2022-10-21T08:14:12.608Z,15.60
2022-10-21T08:16:40.115Z,15.70
2022-10-21T08:19:08.277Z,15.70
2022-10-21T08:21:36.242Z,15.70
2022-10-21T08:24:04.218Z,15.70
2022-10-21T08:26:30.944Z,15.80
2022-10-21T08:31:25.422Z,15.80
2022-10-21T08:33:52.115Z,15.80
2022-10-21T08:36:21.183Z,15.80
2022-10-21T08:38:48.450Z,15.80
2022-10-21T08:41:30.468Z,15.90
2022-10-21T08:44:34.833Z,15.80
2022-10-21T08:47:19.022Z,15.80
2022-10-21T08:49:59.597Z,15.80
2022-10-21T08:52:41.843Z,15.80
2022-10-21T08:55:16.703Z,15.80
2022-10-21T08:57:43.477Z,15.80
2022-10-21T09:00:25.109Z,15.80
2022-10-21T09:03:15.925Z,15.90
2022-10-21T09:06:14.122Z,15.90
2022-10-21T09:08:57.293Z,15.90
2022-10-21T09:11:39.427Z,15.90
2022-10-21T09:14:54.467Z,15.90
2022-10-21T09:17:39.950Z,16.00
2022-10-21T09:20:09.789Z,16.00
2022-10-21T09:23:14.976Z,16.00
2022-10-21T09:25:59.857Z,16.10
2022-10-21T09:28:30.036Z,16.10
2022-10-21T09:31:00.666Z,16.10
2022-10-21T09:33:31.192Z,16.00
2022-10-21T09:36:08.295Z,16.10
2022-10-21T09:38:48.134Z,16.10
2022-10-21T09:43:52.276Z,16.20
2022-10-21T09:46:19.655Z,16.30
2022-10-21T09:49:16.236Z,16.30
2022-10-21T09:51:40.144Z,16.30
2022-10-21T09:54:15.127Z,16.30
2022-10-21T09:56:58.802Z,16.40
2022-10-21T09:59:30.360Z,16.30
2022-10-21T10:02:07.606Z,16.30
2022-10-21T10:04:35.171Z,16.30
2022-10-21T10:07:18.167Z,16.30
2022-10-21T10:09:48.300Z,16.30
2022-10-21T10:12:26.493Z,16.30
2022-10-21T10:14:53.497Z,16.40
2022-10-21T10:17:25.983Z,16.30
2022-10-21T10:20:07.683Z,16.30
2022-10-21T10:23:04.453Z,16.30
2022-10-21T10:25:33.716Z,16.40
2022-10-21T10:28:09.994Z,16.50
2022-10-21T10:30:42.695Z,16.50
2022-10-21T10:33:26.504Z,16.40
2022-10-21T10:36:00.014Z,16.40
2022-10-21T10:38:34.011Z,16.30
2022-10-21T10:41:19.025Z,16.40
2022-10-21T10:43:52.902Z,16.50
2022-10-21T10:46:25.765Z,16.40
2022-10-21T10:48:54.156Z,16.50
2022-10-21T10:51:33.626Z,16.60
2022-10-21T10:54:18.079Z,16.60
2022-10-21T10:56:47.464Z,16.70
2022-10-21T10:59:22.908Z,16.80
2022-10-21T11:01:54.202Z,16.80
2022-10-21T11:04:34.213Z,16.80
2022-10-21T11:07:30.109Z,16.80
2022-10-21T11:10:02.079Z,16.90
2022-10-21T11:12:28.723Z,16.90
2022-10-21T11:14:58.113Z,16.90
2022-10-21T11:18:00.477Z,16.90
2022-10-21T11:20:41.389Z,17.00
2022-10-21T11:23:29.931Z,17.00
2022-10-21T11:26:15.435Z,17.00
2022-10-21T11:28:57.450Z,17.10
2022-10-21T11:32:06.727Z,17.10
2022-10-21T11:35:01.293Z,17.10
2022-10-21T11:37:50.505Z,17.10
2022-10-21T11:41:01.509Z,17.20
2022-10-21T11:43:34.052Z,17.30
2022-10-21T11:46:36.089Z,17.20
2022-10-21T11:49:12.836Z,17.30
2022-10-21T11:51:59.766Z,17.30
2022-10-21T11:55:00.901Z,17.40
2022-10-21T11:57:46.372Z,17.40
2022-10-21T12:00:22.602Z,17.50
2022-10-21T12:03:29.980Z,17.60
2022-10-21T12:06:13.052Z,17.60
2022-10-21T12:08:53.923Z,17.60
2022-10-21T12:11:34.671Z,17.70
2022-10-21T12:14:18.803Z,17.70
2022-10-21T12:16:49.783Z,17.70
2022-10-21T12:19:17.086Z,17.70
2022-10-21T12:21:45.400Z,17.80
2022-10-21T12:24:33.827Z,17.80
2022-10-21T12:27:24.970Z,17.80
2022-10-21T12:30:17.516Z,17.80
2022-10-21T12:33:02.313Z,17.80
2022-10-21T12:35:50.378Z,17.80
2022-10-21T12:38:27.948Z,17.80
2022-10-21T12:41:19.919Z,17.90
2022-10-21T12:43:52.710Z,17.90
2022-10-21T12:46:26.159Z,17.80
2022-10-21T12:48:53.360Z,17.80
2022-10-21T12:51:26.705Z,17.80
2022-10-21T12:53:57.998Z,17.80
2022-10-21T12:56:37.876Z,17.70
2022-10-21T12:59:06.948Z,17.70
2022-10-21T13:01:39.021Z,17.70
2022-10-21T13:04:33.963Z,17.70
2022-10-21T13:07:15.827Z,17.70
2022-10-21T13:09:50.727Z,17.70
2022-10-21T13:12:23.373Z,17.70
2022-10-21T13:15:08.029Z,17.70
2022-10-21T13:17:53.203Z,17.80
2022-10-21T13:20:19.961Z,17.80
2022-10-21T13:22:49.696Z,17.80
2022-10-21T13:25:16.415Z,17.80
2022-10-21T13:27:48.426Z,17.80
2022-10-21T13:30:36.551Z,17.80
2022-10-21T13:33:04.454Z,17.80
2022-10-21T13:35:46.422Z,17.70
2022-10-21T13:38:25.440Z,17.80
2022-10-21T13:40:56.426Z,17.70
2022-10-21T13:43:28.785Z,17.70
2022-10-21T13:46:04.578Z,17.70
2022-10-21T13:48:31.828Z,17.70
2022-10-21T13:51:26.659Z,17.70
2022-10-21T13:53:58.703Z,17.70
2022-10-21T13:56:33.989Z,17.80
2022-10-21T13:59:00.829Z,17.80
2022-10-21T14:01:31.321Z,17.70
2022-10-21T14:04:22.428Z,17.70
2022-10-21T14:07:03.605Z,17.80
2022-10-21T14:09:39.075Z,17.70
2022-10-21T14:12:09.517Z,17.70
2022-10-21T14:14:39.265Z,17.70
2022-10-21T14:17:16.072Z,17.70
2022-10-21T14:19:48.839Z,17.70
2022-10-21T14:22:25.427Z,17.70
2022-10-21T14:24:57.570Z,17.70
2022-10-21T14:27:30.532Z,17.70
2022-10-21T14:30:00.724Z,17.70
2022-10-21T14:32:27.888Z,17.70
2022-10-21T14:35:24.736Z,17.70
2022-10-21T14:37:54.942Z,17.70
2022-10-21T14:40:26.579Z,17.70
2022-10-21T14:42:54.823Z,17.70
2022-10-21T14:45:30.808Z,17.80
2022-10-21T14:48:11.080Z,17.70
2022-10-21T14:50:40.004Z,17.70
2022-10-21T14:53:18.043Z,17.70
2022-10-21T14:55:46.617Z,17.70
2022-10-21T14:58:22.833Z,17.80
2022-10-21T15:01:18.069Z,17.80
2022-10-21T15:03:47.576Z,17.80
2022-10-21T15:06:29.456Z,17.80
2022-10-21T15:08:56.200Z,17.80
2022-10-21T15:11:25.904Z,17.80
2022-10-21T15:13:56.868Z,17.80
2022-10-21T15:16:27.891Z,17.70
2022-10-21T15:18:55.189Z,17.70
2022-10-21T15:21:38.543Z,17.70
2022-10-21T15:24:06.306Z,17.80
2022-10-21T15:26:41.111Z,17.80
2022-10-21T15:29:21.188Z,17.80
2022-10-21T15:31:47.845Z,17.80
2022-10-21T15:34:15.849Z,17.80
2022-10-21T15:36:43.900Z,17.80
2022-10-21T15:39:11.688Z,17.80
2022-10-21T15:41:38.983Z,17.80
2022-10-21T15:44:18.507Z,17.80
2022-10-21T15:46:46.913Z,17.80
2022-10-21T15:49:22.135Z,17.80
2022-10-21T15:51:50.034Z,17.80
2022-10-21T15:54:18.130Z,17.70
2022-10-21T15:56:48.224Z,17.80
2022-10-21T15:59:21.071Z,17.80
2022-10-21T16:01:48.812Z,17.80
2022-10-21T16:04:15.561Z,17.80
2022-10-21T16:06:47.761Z,17.80
2022-10-21T16:09:32.597Z,17.80
2022-10-21T16:12:00.692Z,17.80
2022-10-21T16:14:30.174Z,17.80
2022-10-21T16:16:58.495Z,17.80
2022-10-21T16:19:25.151Z,17.80
2022-10-21T16:21:51.887Z,17.80
2022-10-21T16:24:18.742Z,17.80
2022-10-21T16:26:48.012Z,17.80
2022-10-21T16:29:32.493Z,17.80
2022-10-21T16:31:59.071Z,17.70
2022-10-21T16:34:25.717Z,17.70
2022-10-21T16:36:52.314Z,17.70
2022-10-21T16:39:21.977Z,17.70
2022-10-21T16:41:48.965Z,17.60
2022-10-21T16:44:15.588Z,17.60
2022-10-21T16:46:49.915Z,17.60
2022-10-21T16:49:27.887Z,17.70
2022-10-21T16:51:55.071Z,17.70
2022-10-21T16:54:22.934Z,17.60
2022-10-21T16:56:52.143Z,17.70
2022-10-21T16:59:21.419Z,17.70
2022-10-21T17:01:47.983Z,17.70
2022-10-21T17:04:14.662Z,17.70
2022-10-21T17:06:41.539Z,17.70
2022-10-21T17:09:08.467Z,17.70
2022-10-21T17:11:37.841Z,17.70
2022-10-21T17:14:08.165Z,17.70
2022-10-21T17:16:34.900Z,17.70
2022-10-21T17:19:01.529Z,17.70
2022-10-21T17:21:31.434Z,17.70
2022-10-21T17:24:00.448Z,17.70
2022-10-21T17:26:27.763Z,17.70
2022-10-21T17:28:56.845Z,17.60
2022-10-21T17:31:27.266Z,17.60
2022-10-21T17:33:56.577Z,17.70
2022-10-21T17:36:23.208Z,17.60
2022-10-21T17:38:49.929Z,17.60
2022-10-21T17:41:18.611Z,17.60
2022-10-21T17:43:45.203Z,17.60
2022-10-21T17:46:18.323Z,17.70
2022-10-21T17:48:48.941Z,17.70
2022-10-21T17:51:15.630Z,17.70
2022-10-21T17:53:42.229Z,17.70
2022-10-21T17:56:08.893Z,17.70
2022-10-21T17:58:35.674Z,17.70
2022-10-21T18:01:10.682Z,17.60
2022-10-21T18:03:37.850Z,17.60
2022-10-21T18:06:06.527Z,17.60
2022-10-21T18:08:33.167Z,17.70
2022-10-21T18:11:00.660Z,17.70
2022-10-21T18:13:29.327Z,17.60
2022-10-21T18:16:05.633Z,17.70
2022-10-21T18:18:33.169Z,17.70
2022-10-21T18:21:04.695Z,17.70
2022-10-21T18:23:32.365Z,17.70
2022-10-21T18:26:07.213Z,17.70
2022-10-21T18:28:34.648Z,17.60
2022-10-21T18:31:02.519Z,17.70
2022-10-21T18:33:29.577Z,17.70
2022-10-21T18:35:56.721Z,17.70
2022-10-21T18:38:23.780Z,17.60
2022-10-21T18:40:56.349Z,17.70
2022-10-21T18:43:29.246Z,17.60
2022-10-21T18:45:56.728Z,17.60
2022-10-21T18:48:23.561Z,17.60
2022-10-21T18:50:50.389Z,17.60
2022-10-21T18:53:17.125Z,17.60
2022-10-21T18:55:43.886Z,17.60
2022-10-21T18:58:10.715Z,17.60
2022-10-21T19:00:37.653Z,17.60
2022-10-21T19:03:04.807Z,17.70
2022-10-21T19:05:31.555Z,17.60
2022-10-21T19:07:58.382Z,17.60
2022-10-21T19:10:25.641Z,17.60
2022-10-21T19:12:52.474Z,17.60
2022-10-21T19:15:21.192Z,17.60
2022-10-21T19:17:49.375Z,17.70
2022-10-21T19:20:17.033Z,17.60
2022-10-21T19:22:43.809Z,17.60
2022-10-21T19:25:10.440Z,17.60
2022-10-21T19:27:37.220Z,17.60
2022-10-21T19:30:04.503Z,17.60
2022-10-21T19:32:31.088Z,17.60
2022-10-21T19:34:57.702Z,17.50
2022-10-21T19:37:24.298Z,17.50
2022-10-21T19:39:51.025Z,17.50
2022-10-21T19:42:17.673Z,17.50
2022-10-21T19:44:44.300Z,17.60
2022-10-21T19:47:10.956Z,17.60
2022-10-21T19:49:37.665Z,17.60
2022-10-21T19:52:05.103Z,17.60
2022-10-21T19:54:31.728Z,17.60
2022-10-21T19:56:58.322Z,17.60
2022-10-21T19:59:24.949Z,17.60
2022-10-21T20:01:54.292Z,17.60
2022-10-21T20:04:21.011Z,17.60
2022-10-21T20:06:47.809Z,17.50
2022-10-21T20:09:15.087Z,17.50
2022-10-21T20:11:41.977Z,17.50
2022-10-21T20:14:11.000Z,17.50
2022-10-21T20:16:41.794Z,17.50
2022-10-21T20:19:10.115Z,17.50
2022-10-21T20:21:37.200Z,17.50
2022-10-21T20:24:04.297Z,17.50
2022-10-21T20:26:31.338Z,17.50
2022-10-21T20:29:00.464Z,17.50
2022-10-21T20:31:27.411Z,17.50
2022-10-21T20:33:54.538Z,17.40
2022-10-21T20:36:27.608Z,17.40
2022-10-21T20:38:56.893Z,17.40
2022-10-21T20:41:26.997Z,17.40
2022-10-21T20:43:54.824Z,17.40
2022-10-21T20:46:23.908Z,17.40
2022-10-21T20:48:52.699Z,17.40
2022-10-21T20:51:25.071Z,17.40
2022-10-21T20:53:55.441Z,17.40
2022-10-21T20:56:25.229Z,17.50
2022-10-21T20:58:51.849Z,17.50
2022-10-21T21:01:22.252Z,17.50
2022-10-21T21:03:49.561Z,17.50
2022-10-21T21:06:16.264Z,17.50
2022-10-21T21:08:48.729Z,17.50
2022-10-21T21:11:25.260Z,17.50
2022-10-21T21:13:51.915Z,17.50
2022-10-21T21:16:21.108Z,17.50
2022-10-21T21:18:58.652Z,17.50
2022-10-21T21:21:27.562Z,17.50
2022-10-21T21:23:55.265Z,17.50
2022-10-21T21:26:37.233Z,17.50
2022-10-21T21:29:06.174Z,17.50
2022-10-21T21:31:33.689Z,17.50
2022-10-21T21:34:00.509Z,17.50
2022-10-21T21:36:27.891Z,17.50
2022-10-21T21:38:54.634Z,17.50
2022-10-21T21:41:22.869Z,17.50
2022-10-21T21:43:51.224Z,17.50
2022-10-21T21:46:25.326Z,17.50
2022-10-21T21:49:04.075Z,17.50
2022-10-21T21:51:33.204Z,17.50
2022-10-21T21:54:00.189Z,17.50
2022-10-21T21:56:27.884Z,17.50
2022-10-21T21:58:55.978Z,17.40
2022-10-21T22:01:25.921Z,17.40
2022-10-21T22:03:54.024Z,17.40
2022-10-21T22:06:23.498Z,17.40
2022-10-21T22:08:51.076Z,17.40
2022-10-21T22:11:20.826Z,17.40
2022-10-21T22:13:47.774Z,17.40
2022-10-21T22:16:16.006Z,17.40
2022-10-21T22:18:43.597Z,17.40
2022-10-21T22:21:14.019Z,17.40
2022-10-21T22:23:41.076Z,17.40
2022-10-21T22:26:07.866Z,17.40
2022-10-21T22:28:35.362Z,17.40
2022-10-21T22:31:08.042Z,17.40
2022-10-21T22:33:35.369Z,17.40
2022-10-21T22:36:02.646Z,17.40
2022-10-21T22:38:29.673Z,17.40
2022-10-21T22:40:58.685Z,17.40
2022-10-21T22:43:26.842Z,17.40
2022-10-21T22:46:01.114Z,17.40
2022-10-21T22:48:40.583Z,17.40
2022-10-21T22:51:07.217Z,17.40
2022-10-21T22:53:35.290Z,17.40
2022-10-21T22:56:02.082Z,17.40
2022-10-21T22:58:28.699Z,17.30
2022-10-21T23:03:27.048Z,17.40
2022-10-21T23:05:53.820Z,17.40
2022-10-21T23:08:20.461Z,17.40
2022-10-21T23:10:48.642Z,17.40
2022-10-21T23:13:15.375Z,17.40
2022-10-21T23:15:42.093Z,17.40
2022-10-21T23:18:08.966Z,17.40
2022-10-21T23:20:35.947Z,17.40
2022-10-21T23:23:02.680Z,17.40
2022-10-21T23:25:29.455Z,17.40
2022-10-21T23:27:56.123Z,17.40
2022-10-21T23:30:23.141Z,17.40
2022-10-21T23:32:51.285Z,17.40
2022-10-21T23:35:18.517Z,17.40
2022-10-21T23:37:45.167Z,17.40
2022-10-21T23:40:12.740Z,17.40
2022-10-21T23:42:42.762Z,17.40
2022-10-21T23:45:11.349Z,17.50
2022-10-21T23:47:39.482Z,17.50
2022-10-21T23:50:08.737Z,17.40
2022-10-21T23:52:36.256Z,17.50
2022-10-21T23:55:07.064Z,17.40
2022-10-21T23:57:34.069Z,17.50
